Time;durP1;ratioP1;P1;durP2;ratioP2;P2;SDS_P1;SDS_P2;PMS_P1;PMS_P2;Temp;Humidity;BMP_temperature;BMP_pressure;BME280_temperature;BME280_humidity;BME280_pressure;Samples;Min_cycle;Max_cycle;Signal;HPM_P1;HPM_P2
2022/01/27 00:01:43;;;;;;;25.98;11.98;;;;;;;;;;6255712;28;20061;-76
2022/01/27 00:04:52;;;;;;;;;;;;;;;;;;6246798;28;20009;-76
2022/01/27 00:08:15;;;;;;;21.05;11.68;;;;;;;;;;6246101;28;19905;-76
2022/01/27 00:11:16;;;;;;;27.10;11.45;;;;;;;;;;6242875;28;20096;-76
2022/01/27 00:14:19;;;;;;;23.25;10.43;;;;;;;;;;6242535;28;20033;-76
2022/01/27 00:17:28;;;;;;;18.63;9.95;;;;;;;;;;6242692;28;20021;-76
2022/01/27 00:20:28;;;;;;;28.10;14.55;;;;;;;;;;6224130;28;20522;-76
2022/01/27 00:23:28;;;;;;;21.95;10.68;;;;;;;;;;6245092;28;20052;-76
2022/01/27 00:26:29;;;;;;;23.47;12.17;;;;;;;;;;6230074;28;20056;-76
2022/01/27 00:29:29;;;;;;;20.48;10.95;;;;;;;;;;6252505;28;20333;-76
2022/01/27 00:32:29;;;;;;;28.03;12.93;;;;;;;;;;6272060;28;20028;-76
2022/01/27 00:35:30;;;;;;;16.42;7.97;;;;;;;;;;6271860;28;20261;-76
2022/01/27 00:38:31;;;;;;;23.85;10.35;;;;;;;;;;6254058;28;20013;-76
2022/01/27 00:41:31;;;;;;;21.65;9.30;;;;;;;;;;6254289;28;20024;-76
2022/01/27 00:44:31;;;;;;;24.15;10.90;;;;;;;;;;6253604;28;20017;-76
2022/01/27 00:47:31;;;;;;;22.63;11.38;;;;;;;;;;6253963;28;20028;-76
2022/01/27 00:50:34;;;;;;;23.75;10.85;;;;;;;;;;6253337;28;20017;-76
2022/01/27 00:53:44;;;;;;;21.60;9.85;;;;;;;;;;6253231;28;20129;-76
2022/01/27 00:56:57;;;;;;;26.52;11.35;;;;;;;;;;6256891;28;20120;-76
2022/01/27 01:00:01;;;;;;;24.88;12.43;;;;;;;;;;6255282;28;20021;-76
2022/01/27 01:03:09;;;;;;;33.30;13.02;;;;;;;;;;6259578;28;20029;-76
2022/01/27 01:10:09;;;;;;;28.60;13.45;;;;;;;;;;6256362;28;20033;-76
2022/01/27 01:15:57;;;;;;;27.33;13.18;;;;;;;;;;6246818;28;20036;-76
2022/01/27 01:19:15;;;;;;;21.63;11.07;;;;;;;;;;6228028;28;20021;-76
2022/01/27 01:32:25;;;;;;;24.92;11.55;;;;;;;;;;6246036;28;20026;-74
2022/01/27 01:35:35;;;;;;;29.73;12.95;;;;;;;;;;6251913;28;20036;-74
2022/01/27 01:38:36;;;;;;;26.15;10.77;;;;;;;;;;6252291;28;20021;-76
2022/01/27 01:41:36;;;;;;;22.13;10.52;;;;;;;;;;6270557;28;20388;-75
2022/01/27 01:44:36;;;;;;;21.92;10.27;;;;;;;;;;6269424;28;20388;-75
2022/01/27 01:47:36;;;;;;;22.83;9.52;;;;;;;;;;6264707;28;20403;-75
2022/01/27 01:50:37;;;;;;;19.42;9.77;;;;;;;;;;6253107;28;20029;-75
2022/01/27 01:53:37;;;;;;;31.00;13.77;;;;;;;;;;6237760;28;20021;-75
2022/01/27 01:56:38;;;;;;;21.53;9.97;;;;;;;;;;6264945;28;20028;-75
2022/01/27 01:59:39;;;;;;;18.73;8.90;;;;;;;;;;6269886;28;20267;-75
2022/01/27 02:02:40;;;;;;;28.23;15.27;;;;;;;;;;6261513;28;20445;-76
2022/01/27 02:05:46;;;;;;;23.53;11.13;;;;;;;;;;6256494;28;20263;-76
2022/01/27 02:09:36;;;;;;;18.30;6.75;;;;;;;;;;6259121;28;20036;-76
2022/01/27 02:18:48;;;;;;;17.63;8.18;;;;;;;;;;6269353;28;20029;-76
2022/01/27 02:21:56;;;;;;;25.65;12.63;;;;;;;;;;6269850;28;20408;-76
2022/01/27 02:24:56;;;;;;;16.63;8.45;;;;;;;;;;6269344;28;20382;-76
2022/01/27 02:27:57;;;;;;;17.73;10.20;;;;;;;;;;6251489;28;20139;-76
2022/01/27 02:30:57;;;;;;;16.00;7.28;;;;;;;;;;6269189;28;20392;-76
2022/01/27 02:33:57;;;;;;;21.03;8.97;;;;;;;;;;6251163;28;20025;-76
2022/01/27 02:36:58;;;;;;;30.55;16.05;;;;;;;;;;6268809;28;20343;-76
2022/01/27 02:39:58;;;;;;;17.17;11.63;;;;;;;;;;6251053;28;20075;-76
2022/01/27 02:42:58;;;;;;;20.17;10.82;;;;;;;;;;6250734;28;20639;-76
2022/01/27 02:46:00;;;;;;;29.05;15.57;;;;;;;;;;6268067;28;20262;-76
2022/01/27 02:49:00;;;;;;;35.17;16.45;;;;;;;;;;6268650;28;20273;-76
2022/01/27 02:52:00;;;;;;;35.83;16.57;;;;;;;;;;6250116;28;20029;-76
2022/01/27 02:55:00;;;;;;;31.17;15.10;;;;;;;;;;6266827;28;20271;-76
2022/01/27 02:58:00;;;;;;;31.73;16.70;;;;;;;;;;6226243;28;20752;-76
2022/01/27 03:01:03;;;;;;;34.50;16.17;;;;;;;;;;6257746;28;20083;-75
2022/01/27 03:04:03;;;;;;;29.95;14.60;;;;;;;;;;6248655;28;20266;-75
2022/01/27 03:07:04;;;;;;;33.58;17.95;;;;;;;;;;6259309;28;20021;-76
2022/01/27 03:10:05;;;;;;;41.30;21.70;;;;;;;;;;6261198;28;20020;-76
2022/01/27 03:13:05;;;;;;;35.25;20.13;;;;;;;;;;6235884;28;20272;-76
2022/01/27 03:16:07;;;;;;;47.65;23.77;;;;;;;;;;6249325;28;20396;-76
2022/01/27 03:19:07;;;;;;;45.80;24.10;;;;;;;;;;6247793;28;20028;-76
2022/01/27 03:22:08;;;;;;;49.25;24.48;;;;;;;;;;6251292;28;20017;-76
2022/01/27 03:25:08;;;;;;;30.42;18.08;;;;;;;;;;6267449;28;20032;-76
2022/01/27 03:28:10;;;;;;;35.15;17.58;;;;;;;;;;6267618;28;20035;-76
2022/01/27 03:31:10;;;;;;;45.28;22.70;;;;;;;;;;6247860;28;20028;-76
2022/01/27 03:34:11;;;;;;;46.37;23.93;;;;;;;;;;6263939;28;20078;-76
2022/01/27 03:37:12;;;;;;;40.63;19.95;;;;;;;;;;6249785;28;20397;-76
2022/01/27 03:40:12;;;;;;;43.17;22.33;;;;;;;;;;6267450;28;20396;-76
2022/01/27 03:43:12;;;;;;;45.03;23.02;;;;;;;;;;6243216;28;20017;-76
2022/01/27 03:46:12;;;;;;;51.05;23.52;;;;;;;;;;6241942;28;20031;-76
2022/01/27 03:49:13;;;;;;;48.85;19.30;;;;;;;;;;6260101;28;20016;-75
2022/01/27 03:52:13;;;;;;;55.15;26.35;;;;;;;;;;6253114;28;20173;-76
2022/01/27 03:55:14;;;;;;;22.45;12.02;;;;;;;;;;6251591;28;20033;-75
2022/01/27 03:58:14;;;;;;;28.50;13.02;;;;;;;;;;6226187;28;20064;-75
2022/01/27 04:01:14;;;;;;;31.98;16.75;;;;;;;;;;6248656;28;20021;-75
2022/01/27 04:04:15;;;;;;;43.65;18.58;;;;;;;;;;6241330;28;20071;-76
2022/01/27 04:07:15;;;;;;;54.55;26.42;;;;;;;;;;6260911;28;20389;-75
2022/01/27 04:10:15;;;;;;;47.60;21.73;;;;;;;;;;6260830;28;20026;-75
2022/01/27 04:13:16;;;;;;;50.70;24.52;;;;;;;;;;6263763;28;20056;-75
2022/01/27 04:16:16;;;;;;;39.92;19.02;;;;;;;;;;6266346;28;20104;-75
2022/01/27 04:19:16;;;;;;;35.30;15.83;;;;;;;;;;6249605;28;20032;-75
2022/01/27 04:22:16;;;;;;;42.83;19.20;;;;;;;;;;6248805;28;20291;-75
2022/01/27 04:25:16;;;;;;;33.00;12.63;;;;;;;;;;6267135;28;20739;-75
2022/01/27 04:28:30;;;;;;;33.67;17.90;;;;;;;;;;6266991;28;20725;-75
2022/01/27 04:31:31;;;;;;;33.10;16.95;;;;;;;;;;6267030;28;20032;-75
2022/01/27 04:34:32;;;;;;;26.77;12.88;;;;;;;;;;6248930;28;20627;-75
2022/01/27 04:37:38;;;;;;;19.50;11.20;;;;;;;;;;6266897;28;20025;-75
2022/01/27 04:40:47;;;;;;;45.70;19.35;;;;;;;;;;6248706;28;20492;-76
2022/01/27 04:43:56;;;;;;;52.33;22.55;;;;;;;;;;6248793;28;20370;-76
2022/01/27 04:47:03;;;;;;;36.55;20.17;;;;;;;;;;6248862;28;20091;-75
2022/01/27 04:50:04;;;;;;;29.15;14.10;;;;;;;;;;6266790;28;20028;-76
2022/01/27 04:53:07;;;;;;;44.33;22.88;;;;;;;;;;6264129;28;20021;-75
2022/01/27 04:56:12;;;;;;;37.58;17.98;;;;;;;;;;6257157;28;20026;-75
2022/01/27 04:59:23;;;;;;;40.70;20.08;;;;;;;;;;6244785;28;20025;-75
2022/01/27 05:02:47;;;;;;;27.23;15.63;;;;;;;;;;6242558;28;20026;-75
2022/01/27 05:05:47;;;;;;;38.50;19.40;;;;;;;;;;6253364;28;20381;-76
2022/01/27 05:08:47;;;;;;;58.90;29.63;;;;;;;;;;6238331;28;20018;-76
2022/01/27 05:11:54;;;;;;;48.30;21.08;;;;;;;;;;6246535;28;20431;-76
2022/01/27 05:14:58;;;;;;;45.55;21.38;;;;;;;;;;6228027;28;20032;-76
2022/01/27 05:17:58;;;;;;;62.30;28.92;;;;;;;;;;6246498;28;20030;-75
2022/01/27 05:20:58;;;;;;;43.13;21.83;;;;;;;;;;6246143;28;20317;-75
2022/01/27 05:23:59;;;;;;;47.33;23.47;;;;;;;;;;6246173;28;20942;-75
2022/01/27 05:26:59;;;;;;;44.65;21.17;;;;;;;;;;6228089;28;20268;-75
2022/01/27 05:30:00;;;;;;;49.00;25.83;;;;;;;;;;6237222;28;20057;-75
2022/01/27 05:33:00;;;;;;;43.72;19.75;;;;;;;;;;6270651;28;20032;-75
2022/01/27 05:36:00;;;;;;;45.60;23.13;;;;;;;;;;6270181;28;20021;-75
2022/01/27 05:39:02;;;;;;;33.30;17.70;;;;;;;;;;6270520;28;20059;-76
2022/01/27 05:42:02;;;;;;;43.88;20.70;;;;;;;;;;6270630;28;20397;-76
2022/01/27 05:45:03;;;;;;;50.85;22.85;;;;;;;;;;6269531;28;20024;-76
2022/01/27 05:48:03;;;;;;;63.22;21.48;;;;;;;;;;6245557;28;20021;-76
2022/01/27 05:51:04;;;;;;;64.88;26.98;;;;;;;;;;6228187;28;20478;-76
2022/01/27 05:54:04;;;;;;;48.13;22.00;;;;;;;;;;6267520;28;20028;-76
2022/01/27 05:57:04;;;;;;;49.45;24.80;;;;;;;;;;6263421;28;20033;-76
2022/01/27 06:00:05;;;;;;;38.38;16.50;;;;;;;;;;6239799;28;20032;-76
2022/01/27 06:03:05;;;;;;;53.63;24.30;;;;;;;;;;6252442;28;20021;-76
2022/01/27 06:06:05;;;;;;;31.20;15.15;;;;;;;;;;6262331;28;20087;-76
2022/01/27 06:09:05;;;;;;;52.22;19.33;;;;;;;;;;6265149;28;20699;-76
2022/01/27 06:12:06;;;;;;;46.42;20.52;;;;;;;;;;6268242;28;20451;-76
2022/01/27 06:15:06;;;;;;;50.58;22.63;;;;;;;;;;6243287;28;20396;-76
2022/01/27 06:18:06;;;;;;;38.90;16.35;;;;;;;;;;6268677;28;20032;-76
2022/01/27 06:21:08;;;;;;;57.37;23.20;;;;;;;;;;6250549;28;20467;-76
2022/01/27 06:24:08;;;;;;;39.00;19.27;;;;;;;;;;6240581;28;20693;-76
2022/01/27 06:27:09;;;;;;;54.90;25.80;;;;;;;;;;6245485;28;20110;-76
2022/01/27 06:30:12;;;;;;;53.70;23.02;;;;;;;;;;6255789;28;20045;-77
2022/01/27 06:33:13;;;;;;;37.47;17.83;;;;;;;;;;6257666;28;20086;-77
2022/01/27 06:36:13;;;;;;;43.65;21.80;;;;;;;;;;6258210;28;20028;-77
2022/01/27 06:39:14;;;;;;;35.13;16.65;;;;;;;;;;6256968;28;20091;-77
2022/01/27 06:42:14;;;;;;;42.28;20.17;;;;;;;;;;6252809;28;20029;-77
2022/01/27 06:45:14;;;;;;;33.63;15.60;;;;;;;;;;6237266;28;20021;-77
2022/01/27 06:48:14;;;;;;;36.17;18.00;;;;;;;;;;6237185;28;20021;-77
2022/01/27 06:51:14;;;;;;;38.00;19.10;;;;;;;;;;6254661;28;20778;-77
2022/01/27 06:54:16;;;;;;;62.45;25.55;;;;;;;;;;6239382;28;20301;-77
2022/01/27 06:57:17;;;;;;;41.78;18.58;;;;;;;;;;6263893;28;20024;-77
2022/01/27 07:00:17;;;;;;;53.78;24.33;;;;;;;;;;6267917;28;20091;-77
2022/01/27 07:03:17;;;;;;;42.03;18.77;;;;;;;;;;6254698;28;20025;-77
2022/01/27 07:06:18;;;;;;;33.43;17.93;;;;;;;;;;6234676;28;20059;-77
2022/01/27 07:09:18;;;;;;;45.83;16.83;;;;;;;;;;6265171;28;20251;-77
2022/01/27 07:12:18;;;;;;;28.95;13.52;;;;;;;;;;6253249;28;20028;-77
2022/01/27 07:15:19;;;;;;;52.40;25.58;;;;;;;;;;6254371;28;20036;-77
2022/01/27 07:18:19;;;;;;;30.05;13.63;;;;;;;;;;6253500;28;20029;-77
2022/01/27 07:21:19;;;;;;;29.97;15.53;;;;;;;;;;6257357;28;20503;-77
2022/01/27 07:24:19;;;;;;;38.85;16.48;;;;;;;;;;6249923;28;20255;-77
2022/01/27 07:27:20;;;;;;;56.37;25.43;;;;;;;;;;6267913;28;20024;-77
2022/01/27 07:30:20;;;;;;;21.23;8.73;;;;;;;;;;6267280;28;20298;-76
2022/01/27 07:33:20;;;;;;;45.10;21.10;;;;;;;;;;6250485;28;20032;-77
2022/01/27 07:36:20;;;;;;;34.60;16.97;;;;;;;;;;6231091;28;20287;-76
2022/01/27 07:39:21;;;;;;;40.60;18.93;;;;;;;;;;6243723;28;20264;-77
2022/01/27 07:42:21;;;;;;;35.65;18.15;;;;;;;;;;6225002;28;20284;-76
2022/01/27 07:45:21;;;;;;;59.37;22.40;;;;;;;;;;6262105;28;20039;-76
2022/01/27 07:48:21;;;;;;;40.47;18.42;;;;;;;;;;6267612;28;20271;-76
2022/01/27 07:51:22;;;;;;;34.30;17.83;;;;;;;;;;6267824;28;20017;-76
2022/01/27 07:54:22;;;;;;;30.23;17.17;;;;;;;;;;6266306;28;20289;-76
2022/01/27 07:57:22;;;;;;;30.33;13.10;;;;;;;;;;6252921;28;20396;-76
2022/01/27 08:00:23;;;;;;;32.10;15.40;;;;;;;;;;6240384;28;20771;-76
2022/01/27 08:03:23;;;;;;;28.57;11.37;;;;;;;;;;6253746;28;20021;-76
2022/01/27 08:06:23;;;;;;;36.22;17.25;;;;;;;;;;6241233;28;20259;-76
2022/01/27 08:09:24;;;;;;;35.95;17.20;;;;;;;;;;6249442;28;20024;-76
2022/01/27 08:12:24;;;;;;;39.33;19.67;;;;;;;;;;6248117;28;20123;-76
2022/01/27 08:15:24;;;;;;;39.90;18.07;;;;;;;;;;6249438;28;20283;-76
2022/01/27 08:18:24;;;;;;;45.78;19.77;;;;;;;;;;6244537;28;20263;-76
2022/01/27 08:21:24;;;;;;;41.20;17.90;;;;;;;;;;6249325;28;20032;-76
2022/01/27 08:24:25;;;;;;;47.65;20.30;;;;;;;;;;6266658;28;20025;-76
2022/01/27 08:27:29;;;;;;;34.42;16.92;;;;;;;;;;6266712;28;20299;-76
2022/01/27 08:30:36;;;;;;;42.65;19.15;;;;;;;;;;6248152;28;20512;-76
2022/01/27 08:33:39;;;;;;;32.78;16.50;;;;;;;;;;6267283;28;20024;-76
2022/01/27 08:36:40;;;;;;;31.70;15.38;;;;;;;;;;6264404;28;20029;-76
2022/01/27 08:39:40;;;;;;;33.15;14.10;;;;;;;;;;6262903;28;20063;-76
2022/01/27 08:42:40;;;;;;;39.47;15.32;;;;;;;;;;6233942;28;20029;-76
2022/01/27 08:45:42;;;;;;;32.97;15.50;;;;;;;;;;6239002;28;20021;-76
2022/01/27 08:48:43;;;;;;;29.55;14.35;;;;;;;;;;6271912;28;20025;-76
2022/01/27 08:51:43;;;;;;;33.13;16.55;;;;;;;;;;6271460;28;20031;-76
2022/01/27 08:54:43;;;;;;;45.77;18.83;;;;;;;;;;6269311;28;20052;-76
2022/01/27 08:57:44;;;;;;;36.92;15.35;;;;;;;;;;6242545;28;20256;-76
2022/01/27 09:00:44;;;;;;;36.70;17.23;;;;;;;;;;6261948;28;20031;-76
2022/01/27 09:03:45;;;;;;;24.73;15.03;;;;;;;;;;6254443;28;20263;-76
2022/01/27 09:06:45;;;;;;;33.13;15.57;;;;;;;;;;6248280;28;20882;-76
2022/01/27 09:09:46;;;;;;;29.70;14.10;;;;;;;;;;6251533;28;20024;-76
2022/01/27 09:12:46;;;;;;;29.38;11.93;;;;;;;;;;6258500;28;20053;-76
2022/01/27 09:15:49;;;;;;;28.63;14.33;;;;;;;;;;6258516;28;20029;-76
2022/01/27 09:18:49;;;;;;;36.75;18.20;;;;;;;;;;6263206;28;20263;-76
2022/01/27 09:21:50;;;;;;;35.07;16.13;;;;;;;;;;6257530;28;20021;-76
2022/01/27 09:24:55;;;;;;;31.70;13.73;;;;;;;;;;6267019;28;20659;-75
2022/01/27 09:27:58;;;;;;;36.30;17.02;;;;;;;;;;6268759;28;20040;-75
2022/01/27 09:30:58;;;;;;;32.60;14.27;;;;;;;;;;6265167;28;20069;-75
2022/01/27 09:33:58;;;;;;;25.83;11.10;;;;;;;;;;6259712;28;20022;-75
2022/01/27 09:37:02;;;;;;;36.53;17.17;;;;;;;;;;6243452;28;20024;-75
2022/01/27 09:40:03;;;;;;;26.88;11.43;;;;;;;;;;6256473;28;20014;-75
2022/01/27 09:43:04;;;;;;;23.27;12.05;;;;;;;;;;6253952;28;20032;-75
2022/01/27 09:46:08;;;;;;;26.27;11.10;;;;;;;;;;6269330;28;20055;-75
2022/01/27 09:49:14;;;;;;;27.05;13.30;;;;;;;;;;6270390;28;20321;-75
2022/01/27 09:52:15;;;;;;;22.98;10.10;;;;;;;;;;6267732;28;20026;-75
2022/01/27 09:55:15;;;;;;;14.75;9.13;;;;;;;;;;6246114;28;20017;-75
2022/01/27 09:58:15;;;;;;;21.20;9.57;;;;;;;;;;6268324;28;20036;-75
2022/01/27 10:01:16;;;;;;;24.23;12.25;;;;;;;;;;6266644;28;20283;-75
2022/01/27 10:04:16;;;;;;;24.67;10.77;;;;;;;;;;6268676;28;20017;-76
2022/01/27 10:07:36;;;;;;;20.20;9.17;;;;;;;;;;6269673;28;20108;-76
2022/01/27 10:10:58;;;;;;;19.90;10.32;;;;;;;;;;6227163;28;20276;-76
2022/01/27 10:13:59;;;;;;;22.60;10.02;;;;;;;;;;6257880;28;20056;-76
2022/01/27 10:17:01;;;;;;;22.55;10.80;;;;;;;;;;6257265;28;20397;-76
2022/01/27 10:20:02;;;;;;;36.17;14.77;;;;;;;;;;6237987;28;20564;-76
2022/01/27 10:23:08;;;;;;;23.55;11.20;;;;;;;;;;6226190;28;20018;-76
2022/01/27 10:26:16;;;;;;;21.92;9.63;;;;;;;;;;6244301;28;20377;-76
2022/01/27 10:29:29;;;;;;;25.45;11.20;;;;;;;;;;6260738;28;20040;-76
2022/01/27 10:32:37;;;;;;;33.00;13.50;;;;;;;;;;6245901;28;20037;-76
2022/01/27 10:35:38;;;;;;;29.75;14.63;;;;;;;;;;6245618;28;20029;-76
2022/01/27 10:38:39;;;;;;;28.35;13.27;;;;;;;;;;6229737;28;20394;-76
2022/01/27 10:41:54;;;;;;;21.10;10.98;;;;;;;;;;6258712;28;20068;-76
2022/01/27 10:44:56;;;;;;;24.20;10.75;;;;;;;;;;6264735;28;20029;-76
2022/01/27 10:48:06;;;;;;;20.45;11.95;;;;;;;;;;6268900;28;20020;-75
2022/01/27 10:51:13;;;;;;;24.35;10.43;;;;;;;;;;6266371;28;20039;-75
2022/01/27 10:54:23;;;;;;;16.10;9.20;;;;;;;;;;6268283;28;20017;-75
2022/01/27 10:57:24;;;;;;;16.20;8.63;;;;;;;;;;6248268;28;20406;-76
2022/01/27 11:00:25;;;;;;;23.73;12.07;;;;;;;;;;6253242;28;20039;-76
2022/01/27 11:03:26;;;;;;;27.38;12.88;;;;;;;;;;6241211;28;20025;-77
2022/01/27 11:06:28;;;;;;;23.55;8.48;;;;;;;;;;6260001;28;20063;-77
2022/01/27 11:09:34;;;;;;;27.85;12.35;;;;;;;;;;6251020;28;20313;-77
2022/01/27 11:12:35;;;;;;;24.02;11.68;;;;;;;;;;6247260;28;20025;-76
2022/01/27 11:15:37;;;;;;;21.48;10.63;;;;;;;;;;6260806;28;20032;-76
2022/01/27 11:18:38;;;;;;;16.25;8.23;;;;;;;;;;6234573;28;20057;-77
2022/01/27 11:21:41;;;;;;;20.52;10.35;;;;;;;;;;6247345;28;20033;-77
2022/01/27 11:28:02;;;;;;;23.40;9.70;;;;;;;;;;6260549;28;20040;-76
2022/01/27 11:31:08;;;;;;;23.52;12.05;;;;;;;;;;6238717;28;20046;-76
2022/01/27 11:34:10;;;;;;;28.60;14.40;;;;;;;;;;6247297;28;20021;-76
2022/01/27 11:37:10;;;;;;;31.15;12.05;;;;;;;;;;6265561;28;20484;-76
2022/01/27 11:40:12;;;;;;;31.42;13.60;;;;;;;;;;6232476;28;20036;-77
2022/01/27 11:43:13;;;;;;;21.98;8.35;;;;;;;;;;6237045;28;20032;-77
2022/01/27 11:46:14;;;;;;;19.52;9.75;;;;;;;;;;6240129;28;20407;-77
2022/01/27 11:49:33;;;;;;;30.08;14.52;;;;;;;;;;6234656;28;20020;-77
2022/01/27 11:52:34;;;;;;;34.22;17.50;;;;;;;;;;6247009;28;20396;-77
2022/01/27 11:55:35;;;;;;;20.40;10.15;;;;;;;;;;6231040;28;20543;-77
2022/01/27 11:58:45;;;;;;;18.03;7.80;;;;;;;;;;6229461;28;20028;-77
2022/01/27 12:01:56;;;;;;;23.35;11.80;;;;;;;;;;6252153;28;20276;-77
2022/01/27 12:05:10;;;;;;;23.42;11.57;;;;;;;;;;6238303;28;20512;-77
2022/01/27 12:08:14;;;;;;;19.70;10.00;;;;;;;;;;6256890;28;20517;-77
2022/01/27 12:11:33;;;;;;;26.35;11.10;;;;;;;;;;6247552;28;20029;-77
2022/01/27 12:14:38;;;;;;;20.20;9.65;;;;;;;;;;6237381;28;20058;-77
2022/01/27 12:17:40;;;;;;;10.48;5.70;;;;;;;;;;6254174;28;20470;-77
2022/01/27 12:20:43;;;;;;;11.80;7.83;;;;;;;;;;6251438;28;20592;-77
2022/01/27 12:24:02;;;;;;;28.55;13.27;;;;;;;;;;6255543;28;20058;-77
2022/01/27 12:27:03;;;;;;;27.92;14.30;;;;;;;;;;6234227;28;20021;-77
2022/01/27 12:30:06;;;;;;;26.63;13.97;;;;;;;;;;6255082;28;20041;-77
2022/01/27 12:33:06;;;;;;;20.85;9.80;;;;;;;;;;6260046;28;20037;-77
2022/01/27 12:36:06;;;;;;;31.20;17.55;;;;;;;;;;6241787;28;20127;-77
2022/01/27 12:39:09;;;;;;;20.10;12.35;;;;;;;;;;6244676;28;20025;-77
2022/01/27 12:42:15;;;;;;;18.48;10.13;;;;;;;;;;6269720;28;20021;-77
2022/01/27 12:45:16;;;;;;;23.35;12.05;;;;;;;;;;6256231;28;20084;-76
2022/01/27 12:48:22;;;;;;;33.58;16.65;;;;;;;;;;6239462;28;20376;-77
2022/01/27 12:51:24;;;;;;;25.42;10.75;;;;;;;;;;6239517;28;20044;-77
2022/01/27 12:54:25;;;;;;;25.73;11.80;;;;;;;;;;6255961;28;20483;-77
2022/01/27 12:57:27;;;;;;;19.05;9.05;;;;;;;;;;6247450;28;20499;-77
2022/01/27 13:00:28;;;;;;;30.30;13.57;;;;;;;;;;6240071;28;20089;-76
2022/01/27 13:03:29;;;;;;;24.95;13.23;;;;;;;;;;6255376;28;20024;-76
2022/01/27 13:06:30;;;;;;;22.48;11.88;;;;;;;;;;6254661;28;20030;-76
2022/01/27 13:09:32;;;;;;;23.43;12.43;;;;;;;;;;6237017;28;20025;-76
2022/01/27 13:12:40;;;;;;;32.10;16.92;;;;;;;;;;6252452;28;20025;-76
2022/01/27 13:15:41;;;;;;;24.80;12.55;;;;;;;;;;6236989;28;20021;-76
2022/01/27 13:18:47;;;;;;;30.63;13.50;;;;;;;;;;6252542;28;20072;-76
2022/01/27 13:21:53;;;;;;;24.67;11.60;;;;;;;;;;6260194;28;20096;-76
2022/01/27 13:24:53;;;;;;;38.08;15.70;;;;;;;;;;6235666;28;20393;-76
2022/01/27 13:28:07;;;;;;;26.92;13.80;;;;;;;;;;6251406;28;20009;-76
2022/01/27 13:31:10;;;;;;;23.48;12.18;;;;;;;;;;6252021;28;20037;-76
2022/01/27 13:34:11;;;;;;;30.45;14.48;;;;;;;;;;6245981;28;20388;-76
2022/01/27 13:37:12;;;;;;;29.88;13.10;;;;;;;;;;6236395;28;20037;-76
2022/01/27 13:43:44;;;;;;;33.45;15.73;;;;;;;;;;6251468;28;20022;-76
2022/01/27 13:46:46;;;;;;;35.30;20.15;;;;;;;;;;6243805;28;20091;-76
2022/01/27 13:49:46;;;;;;;;;;;;;;;;;;6271187;28;20106;-76
2022/01/27 13:52:50;;;;;;;21.98;9.73;;;;;;;;;;6245465;28;20332;-76
2022/01/27 13:55:55;;;;;;;31.00;14.60;;;;;;;;;;6241549;28;20013;-76
2022/01/27 13:59:09;;;;;;;33.42;14.95;;;;;;;;;;6262672;28;20072;-76
2022/01/27 14:02:32;;;;;;;35.78;17.17;;;;;;;;;;6255085;28;20081;-76
2022/01/27 14:05:32;;;;;;;48.70;23.85;;;;;;;;;;6260811;28;20385;-76
2022/01/27 14:08:37;;;;;;;45.22;22.77;;;;;;;;;;6260355;28;20052;-76
2022/01/27 14:11:37;;;;;;;41.20;18.30;;;;;;;;;;6226250;28;20079;-76
2022/01/27 14:14:48;;;;;;;34.03;19.98;;;;;;;;;;6246944;28;20017;-76
2022/01/27 14:17:55;;;;;;;45.45;21.42;;;;;;;;;;6231040;28;20036;-76
2022/01/27 14:21:00;;;;;;;27.42;13.60;;;;;;;;;;6261048;28;20029;-76
2022/01/27 14:24:09;;;;;;;35.28;16.75;;;;;;;;;;6257350;28;20097;-76
2022/01/27 14:27:10;;;;;;;43.08;20.83;;;;;;;;;;6248445;28;20016;-76
2022/01/27 14:30:13;;;;;;;41.93;21.20;;;;;;;;;;6267087;28;20120;-76
2022/01/27 14:33:14;;;;;;;23.42;13.52;;;;;;;;;;6249386;28;20013;-76
2022/01/27 14:36:14;;;;;;;43.92;20.15;;;;;;;;;;6267382;28;20160;-76
2022/01/27 14:39:14;;;;;;;40.83;19.67;;;;;;;;;;6250594;28;20036;-76
2022/01/27 14:42:17;;;;;;;49.25;22.83;;;;;;;;;;6264154;28;20104;-76
2022/01/27 14:45:18;;;;;;;56.90;26.20;;;;;;;;;;6236819;28;20429;-75
2022/01/27 14:48:19;;;;;;;47.13;20.00;;;;;;;;;;6250347;28;20018;-75
2022/01/27 14:51:20;;;;;;;43.35;20.85;;;;;;;;;;6248279;28;20025;-76
2022/01/27 14:54:20;;;;;;;30.85;16.40;;;;;;;;;;6254131;28;20033;-76
2022/01/27 14:57:21;;;;;;;41.53;20.73;;;;;;;;;;6245759;28;20013;-76
2022/01/27 15:00:22;;;;;;;58.70;22.30;;;;;;;;;;6245962;28;20279;-76
2022/01/27 15:03:23;;;;;;;34.45;17.40;;;;;;;;;;6255393;28;20053;-76
2022/01/27 15:06:23;;;;;;;33.03;17.53;;;;;;;;;;6242002;28;20384;-76
2022/01/27 15:09:23;;;;;;;48.63;21.95;;;;;;;;;;6244410;28;20790;-76
2022/01/27 15:12:23;;;;;;;45.15;20.35;;;;;;;;;;6261344;28;20044;-76
2022/01/27 15:18:49;;;;;;;41.38;16.98;;;;;;;;;;6242832;28;20280;-76
2022/01/27 15:21:49;;;;;;;39.85;17.40;;;;;;;;;;6227845;28;20060;-75
2022/01/27 15:24:49;;;;;;;46.97;26.48;;;;;;;;;;6249152;28;20017;-75
2022/01/27 15:27:50;;;;;;;34.83;18.92;;;;;;;;;;6248747;28;20017;-75
2022/01/27 15:30:51;;;;;;;54.58;24.60;;;;;;;;;;6265153;28;20056;-76
2022/01/27 15:33:51;;;;;;;35.28;17.80;;;;;;;;;;6253957;28;20025;-75
2022/01/27 15:36:53;;;;;;;43.08;25.67;;;;;;;;;;6256576;28;20071;-75
2022/01/27 15:39:57;;;;;;;33.83;17.63;;;;;;;;;;6235104;28;20013;-75
2022/01/27 15:42:59;;;;;;;38.08;16.73;;;;;;;;;;6234440;28;20053;-75
2022/01/27 15:46:02;;;;;;;48.45;27.38;;;;;;;;;;6229692;28;20024;-75
2022/01/27 15:49:02;;;;;;;44.35;20.42;;;;;;;;;;6244734;28;20079;-75
2022/01/27 15:52:02;;;;;;;44.88;24.45;;;;;;;;;;6252218;28;20025;-74
2022/01/27 15:55:04;;;;;;;42.15;21.25;;;;;;;;;;6244364;28;20039;-74
2022/01/27 15:58:04;;;;;;;39.13;17.07;;;;;;;;;;6243611;28;20017;-75
2022/01/27 16:01:04;;;;;;;40.20;18.40;;;;;;;;;;6246770;28;20025;-75
2022/01/27 16:04:07;;;;;;;28.23;16.02;;;;;;;;;;6254961;28;20473;-75
2022/01/27 16:07:08;;;;;;;29.83;13.40;;;;;;;;;;6263418;28;20020;-75
2022/01/27 16:10:08;;;;;;;40.83;18.42;;;;;;;;;;6225620;28;20106;-75
2022/01/27 16:13:09;;;;;;;31.35;16.05;;;;;;;;;;6241439;28;20017;-75
2022/01/27 16:16:09;;;;;;;37.80;19.88;;;;;;;;;;6260562;28;20040;-73
2022/01/27 16:19:09;;;;;;;37.08;19.85;;;;;;;;;;6247675;28;20075;-73
2022/01/27 16:22:11;;;;;;;40.40;19.77;;;;;;;;;;6265072;28;20029;-73
2022/01/27 16:25:12;;;;;;;51.50;21.63;;;;;;;;;;6247033;28;20271;-73
2022/01/27 16:28:12;;;;;;;37.75;20.00;;;;;;;;;;6261867;28;20013;-73
2022/01/27 16:31:12;;;;;;;25.77;14.73;;;;;;;;;;6246559;28;20078;-73
2022/01/27 16:34:12;;;;;;;48.93;19.97;;;;;;;;;;6265431;28;20293;-73
2022/01/27 16:37:13;;;;;;;42.83;17.77;;;;;;;;;;6257242;28;20280;-73
2022/01/27 16:40:13;;;;;;;49.33;23.60;;;;;;;;;;6263218;28;20017;-73
2022/01/27 16:43:15;;;;;;;40.70;18.47;;;;;;;;;;6264703;28;20017;-73
2022/01/27 16:46:16;;;;;;;40.47;21.90;;;;;;;;;;6242262;28;20270;-73
2022/01/27 16:49:16;;;;;;;45.60;24.17;;;;;;;;;;6245623;28;20392;-73
2022/01/27 16:52:16;;;;;;;32.10;16.88;;;;;;;;;;6245193;28;20028;-73
2022/01/27 16:55:16;;;;;;;41.55;20.20;;;;;;;;;;6258537;28;20108;-74
2022/01/27 16:58:17;;;;;;;32.80;13.63;;;;;;;;;;6235402;28;20484;-74
2022/01/27 17:01:17;;;;;;;49.33;27.95;;;;;;;;;;6259804;28;20283;-74
2022/01/27 17:04:22;;;;;;;35.10;19.08;;;;;;;;;;6260004;28;20017;-74
2022/01/27 17:07:22;;;;;;;53.28;26.98;;;;;;;;;;6263434;28;20024;-75
2022/01/27 17:10:22;;;;;;;35.92;15.80;;;;;;;;;;6265519;28;20017;-75
2022/01/27 17:13:23;;;;;;;43.77;18.73;;;;;;;;;;6266135;28;20436;-75
2022/01/27 17:16:23;;;;;;;37.38;22.55;;;;;;;;;;6258357;28;20281;-76
2022/01/27 17:19:24;;;;;;;40.55;21.77;;;;;;;;;;6269043;28;20376;-76
2022/01/27 17:22:25;;;;;;;48.60;23.13;;;;;;;;;;6232875;28;20136;-76
2022/01/27 17:25:26;;;;;;;48.10;26.00;;;;;;;;;;6262771;28;20447;-76
2022/01/27 17:28:27;;;;;;;39.03;20.15;;;;;;;;;;6268154;28;20465;-76
2022/01/27 17:31:27;;;;;;;34.47;20.17;;;;;;;;;;6251867;28;20029;-76
2022/01/27 17:34:27;;;;;;;50.95;29.45;;;;;;;;;;6252633;28;20036;-76
2022/01/27 17:37:27;;;;;;;52.20;25.70;;;;;;;;;;6250635;28;20033;-76
2022/01/27 17:40:28;;;;;;;44.45;23.05;;;;;;;;;;6235107;28;20032;-76
2022/01/27 17:43:44;;;;;;;39.75;20.08;;;;;;;;;;6258075;28;20029;-76
2022/01/27 17:46:46;;;;;;;49.20;23.30;;;;;;;;;;6252262;28;20090;-76
2022/01/27 17:49:46;;;;;;;53.10;29.77;;;;;;;;;;6233593;28;20021;-76
2022/01/27 17:52:47;;;;;;;41.15;20.85;;;;;;;;;;6233313;28;20366;-75
2022/01/27 17:55:47;;;;;;;49.42;24.13;;;;;;;;;;6255032;28;20021;-75
2022/01/27 17:58:47;;;;;;;57.85;29.20;;;;;;;;;;6251993;28;20022;-75
2022/01/27 18:01:47;;;;;;;49.30;26.95;;;;;;;;;;6256496;28;20020;-75
2022/01/27 18:04:48;;;;;;;55.63;23.45;;;;;;;;;;6253403;28;20819;-75
2022/01/27 18:07:50;;;;;;;63.22;29.98;;;;;;;;;;6254875;28;20388;-75
2022/01/27 18:10:50;;;;;;;45.67;21.27;;;;;;;;;;6239126;28;20032;-74
2022/01/27 18:13:51;;;;;;;48.65;23.23;;;;;;;;;;6253708;28;20021;-74
2022/01/27 18:16:54;;;;;;;62.95;30.17;;;;;;;;;;6243888;28;20538;-74